createdAt,value
2023-02-18T00:00:52.786Z,88.54
2023-02-18T00:05:58.662Z,86.19
2023-02-18T00:11:01.840Z,86.19
2023-02-18T00:16:07.863Z,85.85
2023-02-18T00:21:11.205Z,85.26
2023-02-18T00:26:27.252Z,83.83
2023-02-18T00:31:33.446Z,81.66
2023-02-18T00:36:37.848Z,80.58
2023-02-18T00:41:41.778Z,79.62
2023-02-18T00:46:48.465Z,79.63
2023-02-18T00:51:52.045Z,79.17
2023-02-18T00:56:55.087Z,78.79
2023-02-18T01:01:58.314Z,79.32
2023-02-18T01:07:03.302Z,80.60
2023-02-18T01:12:06.832Z,80.25
2023-02-18T01:17:10.687Z,79.87
2023-02-18T01:22:16.933Z,79.91
2023-02-18T01:27:20.650Z,80.48
2023-02-18T01:32:29.297Z,79.95
2023-02-18T01:37:35.078Z,80.06
2023-02-18T01:42:53.844Z,79.90
2023-02-18T01:47:57.684Z,80.21
2023-02-18T01:53:15.471Z,80.23
2023-02-18T01:58:20.348Z,80.09
2023-02-18T02:03:23.901Z,79.67
2023-02-18T02:08:28.684Z,79.43
2023-02-18T02:13:57.890Z,79.47
2023-02-18T02:19:33.751Z,79.79
2023-02-18T02:24:57.687Z,80.04
2023-02-18T02:30:41.442Z,79.97
2023-02-18T02:35:57.044Z,78.71
2023-02-18T02:41:25.654Z,78.58
2023-02-18T02:46:40.683Z,78.64
2023-02-18T02:51:51.188Z,78.43
2023-02-18T02:57:05.246Z,78.74
2023-02-18T03:02:33.087Z,78.81
2023-02-18T03:08:19.409Z,79.30
2023-02-18T03:13:56.839Z,78.67
2023-02-18T03:19:11.648Z,78.75
2023-02-18T03:24:23.388Z,78.95
2023-02-18T03:29:33.740Z,78.57
2023-02-18T03:34:48.727Z,78.76
2023-02-18T03:39:57.377Z,78.93
2023-02-18T03:45:13.749Z,79.18
2023-02-18T03:50:22.576Z,78.80
2023-02-18T03:55:25.728Z,79.28
2023-02-18T04:00:28.887Z,79.15
2023-02-18T04:05:32.000Z,79.29
2023-02-18T04:10:35.292Z,78.98
2023-02-18T04:15:40.053Z,78.73
2023-02-18T04:20:44.023Z,78.71
2023-02-18T04:25:47.209Z,78.65
2023-02-18T04:30:50.374Z,78.99
2023-02-18T04:35:53.790Z,78.65
2023-02-18T04:40:57.178Z,78.74
2023-02-18T04:46:00.359Z,78.60
2023-02-18T04:51:05.311Z,78.39
2023-02-18T04:56:17.407Z,78.48
2023-02-18T05:01:20.771Z,79.07
2023-02-18T05:06:24.143Z,78.80
2023-02-18T05:11:27.459Z,78.74
2023-02-18T05:16:30.908Z,79.29
2023-02-18T05:21:42.318Z,78.72
2023-02-18T05:26:52.876Z,78.73
2023-02-18T05:31:58.900Z,78.68
2023-02-18T05:37:11.513Z,78.71
2023-02-18T05:42:14.649Z,78.62
2023-02-18T05:47:32.009Z,78.91
2023-02-18T05:52:38.031Z,78.54
2023-02-18T05:57:45.015Z,78.36
2023-02-18T06:02:48.502Z,78.68
2023-02-18T06:07:53.192Z,78.76
2023-02-18T06:12:57.205Z,78.43
2023-02-18T06:18:00.439Z,78.33
2023-02-18T06:23:03.807Z,78.42
2023-02-18T06:28:07.408Z,78.37
2023-02-18T06:33:11.124Z,78.37
2023-02-18T06:38:14.475Z,78.13
2023-02-18T06:48:54.595Z,78.21
2023-02-18T06:53:57.817Z,78.33
2023-02-18T06:59:01.008Z,78.06
2023-02-18T07:04:04.403Z,78.35
2023-02-18T07:09:11.841Z,77.73
2023-02-18T07:14:18.177Z,78.22
2023-02-18T07:19:24.528Z,77.75
2023-02-18T07:24:27.785Z,78.15
2023-02-18T07:29:34.255Z,78.03
2023-02-18T07:34:37.557Z,77.94
2023-02-18T07:39:42.298Z,77.25
2023-02-18T07:44:45.734Z,76.67
2023-02-18T07:49:49.420Z,75.89
2023-02-18T07:54:52.638Z,75.95
2023-02-18T07:59:55.810Z,75.18
2023-02-18T08:04:58.969Z,74.62
2023-02-18T08:10:02.143Z,74.64
2023-02-18T08:15:05.502Z,74.63
2023-02-18T08:20:19.871Z,73.72
2023-02-18T08:25:29.356Z,73.04
2023-02-18T08:30:33.432Z,73.22
2023-02-18T08:35:36.739Z,73.21
2023-02-18T08:40:41.155Z,72.79
2023-02-18T08:45:44.885Z,72.51
2023-02-18T08:50:48.713Z,72.65
2023-02-18T08:55:51.965Z,72.44
2023-02-18T09:00:55.276Z,72.30
2023-02-18T09:06:00.192Z,72.87
2023-02-18T09:11:04.896Z,72.26
2023-02-18T09:16:12.410Z,72.98
2023-02-18T09:21:19.207Z,72.66
2023-02-18T09:26:23.281Z,72.04
2023-02-18T09:31:28.348Z,71.96
2023-02-18T09:36:32.465Z,70.95
2023-02-18T09:42:11.894Z,70.67
2023-02-18T09:47:40.740Z,70.94
2023-02-18T09:52:44.271Z,69.96
2023-02-18T09:57:51.666Z,70.20
2023-02-18T10:03:01.944Z,70.41
2023-02-18T10:08:21.397Z,70.32
2023-02-18T10:13:28.855Z,70.56
2023-02-18T10:18:43.931Z,69.81
2023-02-18T10:23:59.328Z,69.17
2023-02-18T10:29:02.956Z,69.42
2023-02-18T10:34:28.667Z,70.50
2023-02-18T10:39:47.053Z,71.09
2023-02-18T10:45:03.324Z,70.58
2023-02-18T10:50:19.256Z,70.03
2023-02-18T10:55:37.133Z,70.91
2023-02-18T11:00:44.863Z,71.01
2023-02-18T11:05:52.248Z,71.85
2023-02-18T11:10:56.478Z,72.11
2023-02-18T11:16:06.330Z,71.77
2023-02-18T11:21:38.064Z,71.83
2023-02-18T11:26:43.060Z,71.70
2023-02-18T11:31:49.724Z,71.69
2023-02-18T11:36:54.192Z,71.48
2023-02-18T11:42:05.120Z,71.51
2023-02-18T11:47:14.265Z,71.46
2023-02-18T11:52:20.607Z,71.14
2023-02-18T11:57:26.554Z,70.94
2023-02-18T12:02:40.162Z,70.28
2023-02-18T12:07:45.641Z,71.34
2023-02-18T12:13:00.068Z,71.56
2023-02-18T12:18:25.680Z,71.05
2023-02-18T12:24:01.054Z,70.93
2023-02-18T12:29:35.987Z,70.34
2023-02-18T12:35:00.875Z,69.73
2023-02-18T12:40:22.407Z,70.40
2023-02-18T12:46:16.185Z,70.77
2023-02-18T12:51:32.992Z,70.46
2023-02-18T12:56:51.402Z,70.31
2023-02-18T13:02:28.760Z,70.80
2023-02-18T13:07:47.365Z,70.68
2023-02-18T13:13:13.112Z,70.48
2023-02-18T13:18:23.268Z,70.22
2023-02-18T13:23:32.355Z,70.53
2023-02-18T13:29:15.947Z,70.53
2023-02-18T13:34:34.465Z,71.08
2023-02-18T13:39:46.211Z,71.18
2023-02-18T13:44:55.511Z,71.51
2023-02-18T13:49:58.702Z,71.48
2023-02-18T13:55:02.091Z,71.63
2023-02-18T14:00:22.298Z,71.68
2023-02-18T14:05:39.803Z,71.72
2023-02-18T14:11:03.085Z,72.05
2023-02-18T14:16:08.945Z,72.44
2023-02-18T14:21:15.190Z,72.84
2023-02-18T14:26:25.210Z,73.49
2023-02-18T14:31:53.327Z,73.98
2023-02-18T14:37:33.826Z,74.34
2023-02-18T14:42:37.057Z,74.58
2023-02-18T14:48:18.322Z,74.89
2023-02-18T14:53:25.107Z,75.34
2023-02-18T14:58:39.310Z,75.05
2023-02-18T15:03:42.505Z,76.33
2023-02-18T15:08:48.243Z,76.89
2023-02-18T15:13:52.118Z,78.44
2023-02-18T15:19:03.086Z,81.40
2023-02-18T15:24:27.331Z,82.76
2023-02-18T15:29:35.417Z,84.53
2023-02-18T15:34:39.805Z,86.02
2023-02-18T15:39:43.792Z,87.07
2023-02-18T15:44:50.726Z,88.32
2023-02-18T15:49:57.415Z,89.01
2023-02-18T15:55:12.160Z,90.00
2023-02-18T16:00:22.525Z,90.58
2023-02-18T16:05:28.217Z,91.00
2023-02-18T16:10:37.007Z,91.37
2023-02-18T16:15:42.389Z,91.33
2023-02-18T16:21:01.639Z,91.39
2023-02-18T16:26:32.939Z,91.50
2023-02-18T16:31:36.125Z,91.98
2023-02-18T16:36:59.484Z,92.07
2023-02-18T16:42:03.069Z,92.45
2023-02-18T16:47:07.419Z,92.42
2023-02-18T16:52:11.260Z,93.01
2023-02-18T16:57:14.407Z,93.21
2023-02-18T17:02:22.404Z,93.51
2023-02-18T17:07:26.069Z,94.45
2023-02-18T17:12:29.393Z,94.60
2023-02-18T17:17:33.850Z,95.37
2023-02-18T17:22:37.048Z,96.20
2023-02-18T17:27:40.313Z,96.59
2023-02-18T17:32:44.471Z,97.01
2023-02-18T17:37:48.934Z,96.29
2023-02-18T17:42:54.539Z,96.23
2023-02-18T17:47:59.763Z,96.48
2023-02-18T17:53:03.173Z,97.13
2023-02-18T17:58:06.351Z,97.39
2023-02-18T18:03:11.723Z,97.34
2023-02-18T18:08:15.016Z,97.07
2023-02-18T18:13:34.871Z,97.32
2023-02-18T18:18:38.221Z,97.33
2023-02-18T18:23:41.537Z,97.73
2023-02-18T18:28:44.728Z,97.84
2023-02-18T18:33:51.602Z,98.21
2023-02-18T18:38:54.806Z,98.18
2023-02-18T18:43:58.057Z,98.67
2023-02-18T18:49:01.294Z,99.00
2023-02-18T18:54:04.742Z,99.19
2023-02-18T18:59:08.777Z,98.87
2023-02-18T19:04:12.041Z,99.33
2023-02-18T19:09:15.160Z,99.56
2023-02-18T19:14:18.399Z,99.79
2023-02-18T19:19:24.684Z,99.96
2023-02-18T19:24:28.552Z,100.00
2023-02-18T19:29:31.698Z,100.00
2023-02-18T19:34:34.936Z,100.00
2023-02-18T19:39:38.111Z,100.00
2023-02-18T19:44:41.545Z,100.00
2023-02-18T19:49:44.792Z,100.00
2023-02-18T19:54:48.224Z,100.00
2023-02-18T19:59:52.056Z,100.00
2023-02-18T20:04:55.252Z,100.00
2023-02-18T20:09:58.367Z,100.00
2023-02-18T20:15:02.520Z,100.00
2023-02-18T20:20:06.607Z,100.00
2023-02-18T20:25:31.166Z,100.00
2023-02-18T20:30:34.495Z,100.00
2023-02-18T20:35:37.671Z,100.00
2023-02-18T20:40:40.815Z,100.00
2023-02-18T20:45:43.938Z,100.00
2023-02-18T20:50:47.138Z,100.00
2023-02-18T20:55:50.416Z,100.00
2023-02-18T21:01:23.115Z,100.00
2023-02-18T21:06:27.441Z,100.00
2023-02-18T21:11:51.172Z,100.00
2023-02-18T21:16:57.080Z,100.00
2023-02-18T21:22:00.287Z,100.00
2023-02-18T21:27:03.755Z,100.00
2023-02-18T21:32:17.649Z,100.00
2023-02-18T21:37:20.931Z,100.00
2023-02-18T21:42:24.056Z,100.00
2023-02-18T21:47:27.465Z,100.00
2023-02-18T21:52:32.468Z,100.00
2023-02-18T21:57:36.370Z,100.00
2023-02-18T22:02:39.745Z,99.92
2023-02-18T22:07:43.373Z,99.72
2023-02-18T22:12:46.636Z,99.58
2023-02-18T22:17:49.763Z,99.78
2023-02-18T22:22:53.908Z,99.63
2023-02-18T22:27:57.117Z,99.03
2023-02-18T22:33:00.247Z,98.83
2023-02-18T22:38:03.432Z,98.22
2023-02-18T22:43:06.716Z,98.04
2023-02-18T22:48:09.917Z,97.95
2023-02-18T22:53:13.033Z,97.98
2023-02-18T22:58:16.277Z,98.21
2023-02-18T23:03:19.287Z,98.82
2023-02-18T23:08:22.761Z,99.32
2023-02-18T23:13:25.854Z,99.51
2023-02-18T23:18:34.867Z,99.55
2023-02-18T23:23:39.303Z,99.45
2023-02-18T23:28:48.865Z,99.05
2023-02-18T23:33:58.033Z,99.02
2023-02-18T23:39:05.081Z,98.81
2023-02-18T23:44:11.456Z,98.75
2023-02-18T23:49:23.235Z,98.78
2023-02-18T23:54:26.506Z,98.55
2023-02-18T23:59:29.814Z,98.22
